Jeffersonville, New York
Current Conditions -  °F | °C
As of 12:15 PM on Thursday 27 Nov 2014 (Local Time) from KMSV Reporting Station
Overcast Overcast  
Wind Chill: 20°   Ceiling: 900
Heat Index: 28°   Visibility: 2.5mi
Dew Point: 27°   Wind: 9mph
Humidity: 93%   Direction: 300°WNW
Pressure: 29.95"   Gusts: NA
Location:  41.78°N, 74.93°W
Report Text: KMSV 271715Z AUTO 30008KT 2 1/2SM BKN009 OVC014 M02/M03 A2995 RMK AO1
Loading
Personal Weather Stations






























Interactive Weather Map New forecast layout! Learn more

10-Day Weather Forecast

Advertisements
Track Severe Weather on mobile